Tiempo atmosférico en la estación meteorológica de San Sebastián De La Gomera, Santa Cruz de Tenerife (15 m.)



Fecha
DESCASC
Temp. máxima en grados centígrados (hora)
DESCASC
Temp. mínima en grados centígrados (hora)
DESCASC
Temp. media en grados centígrados
DESCASC
Racha de viento máxima en m/sg (hora)
DESCASC
Velocidad máxima media en intervalos de 10 minutos(hora)
DESCASC
Precipitaciones diarias en mm
DESCASC
Precipitaciones de 00:00 a 06:00 en mm
DESCASC
Precipitaciones de 06:00 a 12:00 en mm
DESCASC
Precipitaciones de 12:00 a 18:00 en mm
DESCASC
Precipitaciones de 18:00 a 24:00 en mm
DESCASC
02-07-2020 27.1 (13:20) 22 (06:00) 24.6 20 (13:30) 10 (13:30) 0 0 0 0 0
01-07-2020 28.5 (17:30) 21.8 (05:40) 25.1 23.06 (05:10) 8.33 (15:50) 0 0 0 0 0
30-06-2020 25.7 (17:10) 21.5 (00:00) 23.6 16.39 (15:20) 7.22 (14:50) 0 0 0 0 0
29-06-2020 25.6 (15:30) 21.5 (00:00) 23.6 17.78 (01:30) 7.78 (03:00) 0 0 0 0 0
28-06-2020 26 (15:40) 22 (00:00) 24 17.5 (20:20) 8.33 (22:20) 0 0 0 0 0
27-06-2020 25.6 (17:10) 20.9 (00:00) 23.3 16.39 (16:00) 7.22 (23:59) 0 0 0 0 0
26-06-2020 25.1 (13:30) 21.5 (00:00) 23.3 17.22 (04:30) 6.94 (16:50) 0 0 0 0 0
25-06-2020 25.2 (14:20) 21.7 (00:00) 23.5 15.83 (00:50) 7.78 (01:00) 0 0 0 0 0
24-06-2020 25.4 (14:20) 21.8 (00:00) 23.6 16.39 (20:30) 7.5 (21:00) 0 0 0 0 0
23-06-2020 26.5 (14:20) 21.5 (00:00) 24 16.67 (15:30) 7.22 (14:50) 0 0 0 0 0
22-06-2020 25.8 (13:00) 21.6 (00:00) 23.7 16.39 (18:50) 8.89 (18:20) 0 0 0 0 0
21-06-2020 25.7 (14:40) 21.5 (00:00) 23.6 16.11 (11:10) 6.94 (14:00) 0 0 0 0 0
20-06-2020 26.1 (15:30) 21.7 (00:00) 23.9 15.28 (18:20) 6.67 (23:30) 0 0 0 0 0
19-06-2020 25.7 (12:50) 21.9 (00:00) 23.8 15.56 (11:50) 6.67 (23:20) 0 0 0 0 0
18-06-2020 26.1 (16:20) 21.9 (07:40) 24 13.33 (20:10) 5.56 (15:40) 0 0 0 0 0
17-06-2020 27.6 (14:40) 23.1 (00:00) 25.4 12.78 (00:20) 8.33 (04:30) 0.2 0.2 0 0 0
16-06-2020 29.3 (18:40) 22.7 (00:00) 26 15 (17:20) 8.61 (17:50) 0 0 0 0 0
15-06-2020 28 (19:10) 21.8 (00:00) 24.9 11.39 (13:00) 5.83 (15:00) 0.9 0.9 0 0 0
14-06-2020 24.6 (16:40) 20.1 (00:00) 22.4 8.89 (22:20) 5.83 (14:50) 0 0 0 0 0
13-06-2020 26 (17:00) 20.3 (00:00) 23.1 8.33 (18:00) 4.17 (14:00) 0 0 0 0 0
12-06-2020 25.4 (16:20) 19.7 (00:00) 22.6 10.28 (21:50) 5.28 (21:50) 0 0 0 0 0
11-06-2020 23.9 (11:40) 20.8 (00:00) 22.3 12.22 (11:10) 4.44 (10:10) 0 0 0 0 0
10-06-2020 24.6 (17:30) 20.9 (00:00) 22.8 11.11 (15:10) 6.11 (15:00) 0 0 0 0 0
09-06-2020 25.8 (12:30) 21.1 (00:00) 23.4 20 (19:10) 6.39 (16:40) 0 0 0 0 0
08-06-2020 25.6 (15:00) 21.1 (07:30) 23.4 13.06 (12:20) 5.83 (10:10) 0 0 0 0 0
07-06-2020 25.8 (17:50) 20.9 (00:00) 23.3 10.83 (21:50) 5.56 (12:30) 0 0 0 0 0
06-06-2020 26 (17:30) 20.9 (00:00) 23.4 11.67 (13:30) 5.28 (15:40) 0 0 0 0 0
05-06-2020 24.1 (16:10) 20.9 (00:00) 22.5 11.39 (15:20) 7.5 (15:40) 3.5 0 0 3.5 0
04-06-2020 25.5 (14:40) 20.7 (00:00) 23.1 9.72 (10:50) 6.11 (13:00) 0 0 0 0 0

Gráficas

Temp. máximas Temp. mínimas Temp. medias Precipitaciones Rachas de viento máximas Velocidades máximas media en intervalos de 10 minutos

Datos horarios

Fecha y hora oficial Temperatura (ºC) Velocidad del viento (km/h) Dirección del viento Racha (km/h) Dirección de racha Precipitación (mm) Presión (hPa) Tendencia (hPa) Humedad (%)
2020-07-03 23:00:00 22.7 27 Norte 53 Noroeste 0 1016.6 0.7 81
2020-07-03 22:00:00 23.3 22 Noroeste 46 Noroeste 0 1016.5 0.8 78
2020-07-03 21:00:00 23.1 25 Norte 53 Noroeste 0 1016 0 82
2020-07-03 20:00:00 23.8 24 Noroeste 64 Noroeste 0 1015.9 0 79
2020-07-03 19:00:00 24.5 26 Noroeste 52 Noroeste 0 1015.7 -0.3 77
2020-07-03 18:00:00 25.2 23 Noroeste 62 Oeste 0 1016 0 78
2020-07-03 17:00:00 25 31 Noroeste 59 Noroeste 0 1015.9 -0.6 76
2020-07-03 16:00:00 25.2 28 Noroeste 60 Noroeste 0 1016 -0.3 75
2020-07-03 15:00:00 26.2 24 Noroeste 54 Noroeste 0 1016 -0.5 72
2020-07-03 14:00:00 25.6 23 Noroeste 54 Oeste 0 1016.5 0.5 74
2020-07-03 13:00:00 25.5 28 Noroeste 60 Noroeste 0 1016.3 0.6 74
2020-07-03 12:00:00 24.8 27 Noroeste 52 Noroeste 0 1016.5 -- 76
2020-07-03 11:00:00 24.4 27 Noroeste 56 Noroeste 0 1016 -- 80
2020-07-03 10:00:00 23.7 28 Noroeste 59 Noroeste 0 1015.7 -- 81
2020-07-03 09:00:00 23.4 25 Noroeste 54 Noroeste 0 1015.6 -- 81
2020-07-03 08:00:00 22.7 27 Noroeste 52 Oeste 0 1014.8 -- 84
2020-07-03 07:00:00 22.7 22 Noroeste 50 Noroeste 0 1014.4 -- 83
2020-07-03 06:00:00 22.7 24 Noroeste 61 Oeste 0 1014.2 -- 83
2020-07-03 05:00:00 22.7 25 Noroeste 55 Noroeste 0 1014.3 -- 82
2020-07-03 04:00:00 22.7 28 Noroeste 62 Noroeste 0 1014.2 -- 84
2020-07-03 03:00:00 22.8 23 Norte 60 Norte 0 1015 -- 83
2020-07-03 02:00:00 23 28 Norte 68 Noroeste 0 1015 -- 83
2020-07-03 01:00:00 23.4 26 Noroeste 57 Noroeste 0 1015.5 -- 81
2020-07-03 00:00:00 23.6 29 Noroeste 64 Noroeste 0 1015.3 -- 80
2020-07-02 23:00:00 23.6 26 Noroeste 62 Norte 0 1015.7 -- 78
2020-07-02 22:00:00 23.4 28 Norte 57 Noroeste 0 1015.4 -- 82
2020-07-02 21:00:00 23.5 32 Noroeste 64 Noroeste 0 1014.1 -- 81
2020-07-02 20:00:00 24.1 25 Noroeste 50 Noroeste 0 1013.9 -- 78
2020-07-02 19:00:00 24.9 23 Noroeste 49 Noroeste 0 1014.3 -- 80
2020-07-02 18:00:00 25.1 29 Norte 67 Noroeste 0 1014.3 -- 81
2020-07-02 17:00:00 25.1 31 Norte 57 Norte 0 1014.3 -- 78
2020-07-02 16:00:00 25.5 20 Noroeste 54 Norte 0 1015.1 -- 72
2020-07-02 15:00:00 24.8 28 Norte 55 Noroeste 0 1015.3 -- 76
2020-07-02 14:00:00 26.4 22 Noroeste 72 Norte 0 1015.7 -- 72
2020-07-02 13:00:00 26.3 20 Norte 62 Nordeste 0 1015.5 -- 71
2020-07-02 12:00:00 23.7 27 Norte 57 Noroeste 0 1016.3 -- 79
2020-07-02 11:00:00 25.1 17 Noroeste 42 Noroeste 0 1016.3 -- 75
2020-07-02 10:00:00 24.3 16 Norte 38 Norte 0 1015.9 -- 76
2020-07-02 09:00:00 22.9 20 Norte 50 Norte 0 1014.6 -- 87
2020-07-02 08:00:00 22.2 23 Norte 51 Noroeste 0 1014.4 -- 90
2020-07-02 07:00:00 22.2 27 Noroeste 53 Noroeste 0 1013.7 -- 88
2020-07-02 06:00:00 22 21 Noroeste 45 Norte 0 1013.4 -- 90
2020-07-02 05:00:00 22.3 22 Noroeste 50 Noroeste 0 1013.6 -- 88
2020-07-02 04:00:00 22.2 20 Noroeste 57 Noroeste 0 1013.6 -- 87
2020-07-02 03:00:00 22.7 22 Norte 51 Norte 0 1013.2 -- 83
2020-07-02 02:00:00 23 23 Noroeste 58 Noroeste 0 1013 -- 81
2020-07-02 01:00:00 23.2 19 Noroeste 48 Noroeste 0 1014.2 -- 81
2020-07-02 00:00:00 23.4 20 Noroeste 45 Noroeste 0 1013.9 -- 80
2020-07-01 23:00:00 23.5 15 Norte 43 Norte 0 1014.1 -- 81
2020-07-01 22:00:00 23.4 27 Norte 49 Nordeste 0 1012.5 -- 79
2020-07-01 21:00:00 23.5 24 Norte 52 Norte 0 1013 -- 82
2020-07-01 20:00:00 23.6 22 Norte 55 Norte 0 1013.1 -- 81
2020-07-01 19:00:00 23.9 28 Norte 54 Norte 0 1012.8 -- 80
2020-07-01 18:00:00 25.2 5 Este 48 Norte 0 1012.8 -- 84
2020-07-01 17:00:00 25.8 20 Norte 50 Norte 0 1011.7 -- 71
2020-07-01 16:00:00 25.7 30 Norte 50 Norte 0 1012.1 -- 69
2020-07-01 15:00:00 25.4 26 Norte 57 Norte 0 1013 -- 73
2020-07-01 14:00:00 25.1 17 Norte 46 Noroeste 0 1013.9 -- 72
2020-07-01 13:00:00 24.2 27 Noroeste 51 Noroeste 0 1013.9 -- 77
2020-07-01 12:00:00 23.7 21 Noroeste 48 Oeste 0 1014.6 -- 76
2020-07-01 11:00:00 23 24 Noroeste 51 Noroeste 0 1014.5 -- 81
2020-07-01 10:00:00 22.6 22 Noroeste 50 Noroeste 0 1014 -- 85
2020-07-01 09:00:00 22.5 20 Norte 48 Noroeste 0 1013.9 -- 87
2020-07-01 08:00:00 22.1 20 Norte 42 Norte 0 1013.1 -- 86
2020-07-01 07:00:00 22.2 16 Norte 47 Norte 0 1012.5 -- 81
2020-07-01 06:00:00 22 27 Norte 83 Noroeste 0 1012.4 -- 86
2020-07-01 05:00:00 22.1 19 Norte 40 Norte 0 1012.1 -- 88
2020-07-01 04:00:00 22.3 11 Norte 38 Norte 0 1012.3 -- 82
2020-07-01 03:00:00 22 11 Norte 45 Noroeste 0 1012.8 -- 83
2020-07-01 02:00:00 22.3 12 Norte 36 Norte 0 1013.5 -- 82
2020-07-01 01:00:00 22.2 12 Noroeste 37 Noroeste 0 1014.2 -- 86
2020-07-01 00:00:00 22.3 19 Norte 39 Norte 0 1013.7 -- 87
2020-06-30 23:00:00 22.6 16 Noroeste 38 Norte 0 1013.6 -- 87
2020-06-30 22:00:00 22.9 10 Noroeste 33 Norte 0 1013.4 -- 86
2020-06-30 21:00:00 22.8 15 Noroeste 41 Norte 0 1012.7 -- 87
2020-06-30 20:00:00 23.4 17 Noroeste 39 Nordeste 0 1012.8 -- 85
2020-06-30 19:00:00 24.2 15 Norte 50 Noroeste 0 1012.6 -- 82
2020-06-30 18:00:00 24 24 Noroeste 48 Noroeste 0 1012.2 -- 80
2020-06-30 17:00:00 25 21 Noroeste 48 Noroeste 0 1012.1 -- 79
2020-06-30 16:00:00 25.4 16 Noroeste 59 Noroeste 0 1012.6 -- 75
2020-06-30 15:00:00 24.5 25 Noroeste 58 Noroeste 0 1012.9 -- 74
2020-06-30 14:00:00 24.9 21 Noroeste 50 Noroeste 0 1013.4 -- 74
2020-06-30 13:00:00 25.2 17 Noroeste 42 Noroeste 0 1014.1 -- 76
2020-06-30 12:00:00 24.9 12 Noroeste 43 Noroeste 0 1013.8 -- 74
2020-06-30 11:00:00 23.9 15 Noroeste 39 Oeste 0 1013.7 -- 77
2020-06-30 10:00:00 23.8 12 Norte 42 Noroeste 0 1013.4 -- 81
2020-06-30 09:00:00 22.6 18 Norte 47 Noroeste 0 1013.2 -- 84
2020-06-30 08:00:00 22 19 Norte 43 Nordeste 0 1013.2 -- 86
2020-06-30 07:00:00 22.1 18 Noroeste 43 Nordeste 0 1012.7 -- 86
2020-06-30 06:00:00 21.8 16 Norte 42 Norte 0 1012.8 -- 87
2020-06-30 05:00:00 21.9 20 Noroeste 40 Noroeste 0 1012.7 -- 89
2020-06-30 04:00:00 21.6 17 Noroeste 44 Norte 0 1012.8 -- 90
2020-06-30 03:00:00 22 16 Norte 50 Norte 0 1013.1 -- 89
2020-06-30 02:00:00 21.8 19 Norte 44 Noroeste 0 1013.8 -- 91
2020-06-30 01:00:00 22.2 21 Noroeste 46 Noroeste 0 1014.4 -- 87
2020-06-30 00:00:00 22.3 22 Norte 53 Norte 0 1014.7 -- 89
2020-06-29 23:00:00 22.7 18 Noroeste 50 Noroeste 0 1014.1 -- 87
2020-06-29 22:00:00 22.7 23 Noroeste 48 Norte 0 1013.6 -- 87
2020-06-29 21:00:00 22.7 22 Norte 50 Norte 0 1013.6 -- 87
2020-06-29 20:00:00 23.1 21 Noroeste 50 Noroeste 0 1013.1 -- 86
2020-06-29 19:00:00 23.6 16 Noroeste 45 Noroeste 0 1013.3 -- 86
2020-06-29 18:00:00 24.3 19 Noroeste 52 Norte 0 1013.3 -- 85
2020-06-29 17:00:00 24.7 19 Noroeste 50 Noroeste 0 1014 -- 79
2020-06-29 16:00:00 24.5 19 Noroeste 57 Norte 0 1014.2 -- 82
2020-06-29 15:00:00 24.9 19 Noroeste 59 Norte 0 1014.8 -- 78
2020-06-29 14:00:00 24.9 22 Noroeste 58 Noroeste 0 1015.7 -- 80
2020-06-29 13:00:00 23.9 21 Norte 57 Noroeste 0 1015.7 -- 82
2020-06-29 12:00:00 24.3 21 Norte 54 Nordeste 0 1015.8 -- 80
2020-06-29 11:00:00 23.8 21 Norte 58 Norte 0 1015.3 -- 81
2020-06-29 10:00:00 23.4 22 Noroeste 53 Norte 0 1015.7 -- 87
2020-06-29 09:00:00 22.6 27 Norte 54 Norte 0 1015.5 -- 86
2020-06-29 08:00:00 22.3 23 Norte 57 Norte 0 1015.2 -- 86
2020-06-29 07:00:00 21.6 22 Norte 48 Norte 0 1015.1 -- 91
2020-06-29 06:00:00 22.1 25 Norte 53 Norte 0 1015.2 -- 89
2020-06-29 05:00:00 22.1 25 Norte 53 Norte 0 1015.4 -- 88
2020-06-29 04:00:00 22.3 21 Norte 54 Noroeste 0 1015.4 -- 87
2020-06-29 03:00:00 22.4 28 Norte 57 Norte 0 1015.7 -- 88
2020-06-29 02:00:00 22.6 23 Norte 64 Noroeste 0 1016.2 -- 89
2020-06-29 01:00:00 22.6 25 Norte 57 Noroeste 0 1016.8 -- 87
2020-06-29 00:00:00 22.7 24 Norte 58 Norte 0 1016.6 -- 86
2020-06-28 23:00:00 22.7 29 Norte 62 Nordeste 0 1016.3 -- 87
2020-06-28 22:00:00 23.1 23 Noroeste 57 Norte 0 1016.1 -- 82
2020-06-28 21:00:00 23 23 Noroeste 63 Norte 0 1015.6 -- 84
2020-06-28 20:00:00 23.3 24 Norte 60 Noroeste 0 1015.5 -- 82
2020-06-28 19:00:00 24 26 Noroeste 61 Norte 0 1015.5 -- 77
2020-06-28 18:00:00 24.7 28 Norte 57 Noroeste 0 1015.5 -- 75
2020-06-28 17:00:00 24.5 24 Noroeste 58 Norte 0 1016 -- 76
2020-06-28 16:00:00 25.4 23 Noroeste 62 Oeste 0 1016.2 -- 70
2020-06-28 15:00:00 24.8 19 Noroeste 53 Noroeste 0 1016.5 -0.7 72
2020-06-28 14:00:00 25 19 Noroeste 48 Oeste 0 1017 -- 76
2020-06-28 13:00:00 25 21 Noroeste 56 Noroeste 0 1017.1 -- 75
2020-06-28 12:00:00 24.9 18 Noroeste 57 Noroeste 0 1017.2 -- 75
2020-06-28 11:00:00 23.5 23 Noroeste 49 Noroeste 0 1017 -- 77
2020-06-28 10:00:00 23.3 21 Norte 51 Norte 0 1017.2 -- 80
2020-06-28 09:00:00 22.9 19 Noroeste 49 Noroeste 0 1016.9 -- 82
2020-06-28 08:00:00 22.3 21 Noroeste 46 Norte 0 1016.2 -- 81
2020-06-28 07:00:00 22.1 20 Noroeste 51 Noroeste 0 1015.7 -- 83
2020-06-28 06:00:00 22.1 19 Norte 41 Norte 0 1015.6 -- 83
2020-06-28 05:00:00 22.2 19 Noroeste 50 Norte 0 1015.5 -- 82
2020-06-28 04:00:00 22.4 18 Noroeste 56 Noroeste 0 1015.6 -- 81
2020-06-28 03:00:00 22.4 22 Norte 45 Norte 0 1015.9 -- 80
2020-06-28 02:00:00 22.4 24 Noroeste 50 Noroeste 0 1016.1 -- 80
2020-06-28 01:00:00 22.6 21 Noroeste 48 Noroeste 0 1016.7 -- 78
2020-06-28 00:00:00 22.6 26 Noroeste 59 Oeste 0 1016.6 -- 78
2020-06-27 23:00:00 22.7 18 Noroeste 40 Noroeste 0 1017 -- 80
2020-06-27 22:00:00 23 19 Noroeste 46 Noroeste 0 1016.4 -- 78
2020-06-27 21:00:00 23 17 Noroeste 54 Noroeste 0 1015.8 -- 76
2020-06-27 20:00:00 23.6 21 Noroeste 56 Norte 0 1015.6 -- 74
2020-06-27 19:00:00 24.5 19 Noroeste 53 Noroeste 0 1015.1 -- 70
2020-06-27 18:00:00 24.6 24 Noroeste 56 Nordeste 0 1015.3 -- 73
2020-06-27 17:00:00 25.2 19 Norte 53 Norte 0 1015.8 -- 68
2020-06-27 16:00:00 24.5 23 Noroeste 59 Noroeste 0 1016.1 -- 68
2020-06-27 15:00:00 24.4 22 Noroeste 57 Noroeste 0 1016.5 -- 68
2020-06-27 14:00:00 24.6 19 Noroeste 51 Noroeste 0 1016.5 -- 67
2020-06-27 13:00:00 23.5 19 Norte 50 Noroeste 0 1016.9 -- 69
2020-06-27 12:00:00 24.2 19 Noroeste 53 Norte 0 1017.1 -- 69
2020-06-27 11:00:00 23.1 23 Noroeste 51 Norte 0 1016.9 -- 71
2020-06-27 10:00:00 22.7 18 Noroeste 46 Oeste 0 1016.6 -- 74
2020-06-27 09:00:00 22 18 Noroeste 44 Oeste 0 1016.2 -- 75
2020-06-27 08:00:00 21.1 20 Noroeste 48 Noroeste 0 1016 -- 77
2020-06-27 07:00:00 21.1 20 Norte 39 Noroeste 0 1015.5 -- 79
2020-06-27 06:00:00 21.3 17 Noroeste 50 Norte 0 1015.6 -- 80
2020-06-27 05:00:00 21.2 19 Norte 41 Noroeste 0 1015.4 -- 80
2020-06-27 04:00:00 21.1 18 Norte 48 Norte 0 1015.9 -- 80
2020-06-27 03:00:00 21.2 19 Norte 45 Noroeste 0 1016.1 -- 80
2020-06-27 02:00:00 21.4 18 Norte 45 Noroeste 0 1016.7 -- 80
2020-06-27 01:00:00 21.4 19 Noroeste 50 Noroeste 0 1017.1 -- 79
2020-06-27 00:00:00 21.6 24 Noroeste 49 Noroeste 0 1017.2 -- 81
2020-06-26 23:00:00 21.7 23 Noroeste 50 Noroeste 0 1016.6 -- 82
2020-06-26 22:00:00 21.8 20 Noroeste 44 Nordeste 0 1016.5 -- 82
2020-06-26 21:00:00 22.1 21 Noroeste 51 Noroeste 0 1016.3 -- 83
2020-06-26 20:00:00 22.5 21 Noroeste 44 Noroeste 0 1016 -- 79
2020-06-26 19:00:00 23 20 Noroeste 52 Noroeste 0 1015.9 -- 76
2020-06-26 18:00:00 23.4 21 Noroeste 49 Noroeste 0 1016 -- 75
2020-06-26 17:00:00 23.6 24 Noroeste 53 Oeste 0 1016.2 -- 75
2020-06-26 16:00:00 24.3 25 Noroeste 53 Noroeste 0 1016.9 -- 73
2020-06-26 15:00:00 24.3 23 Noroeste 57 Noroeste 0 1016.7 -- 72
2020-06-26 14:00:00 24.3 20 Noroeste 53 Oeste 0 1016.8 -- 72
2020-06-26 13:00:00 23.8 22 Noroeste 58 Nordeste 0 1016.8 -- 73
2020-06-26 12:00:00 23.7 24 Noroeste 57 Oeste 0 1016.8 -- 73
2020-06-26 11:00:00 23.6 23 Noroeste 53 Noroeste 0 1016.7 -- 73
2020-06-26 10:00:00 23 21 Norte 49 Norte 0 1016.6 -- 72
2020-06-26 09:00:00 22.7 19 Noroeste 48 Noroeste 0 1016.1 -- 73
2020-06-26 08:00:00 22 20 Noroeste 54 Oeste 0 1015.8 -- 77
2020-06-26 07:00:00 21.7 20 Norte 47 Norte 0 1015.8 -- 82
2020-06-26 06:00:00 22 16 Noroeste 47 Norte 0 1015.8 -- 79
2020-06-26 05:00:00 21.9 20 Noroeste 62 Noroeste 0 1016 -- 83
2020-06-26 04:00:00 22 21 Noroeste 52 Noroeste 0 1016 -- 82
2020-06-26 03:00:00 22.1 16 Noroeste 50 Noroeste 0 1016.6 -- 82
2020-06-26 02:00:00 22.1 17 Noroeste 45 Oeste 0 1016.9 -- 83
2020-06-26 01:00:00 22.2 19 Noroeste 60 Oeste 0 1017.3 -- 83
2020-06-26 00:00:00 22.3 23 Norte 54 Norte 0 1016.9 -- 84
2020-06-25 23:00:00 22.3 25 Noroeste 52 Noroeste 0 1016.9 -- 83
2020-06-25 22:00:00 22.6 20 Norte 44 Norte 0 1016.7 -- 77
2020-06-25 21:00:00 22.5 18 Norte 46 Noroeste 0 1016.7 -- 80
2020-06-25 20:00:00 23.4 18 Noroeste 48 Noroeste 0 1016.2 -- 75
2020-06-25 19:00:00 24.4 22 Noroeste 54 Noroeste 0 1016.1 -- 68
2020-06-25 18:00:00 24.5 20 Noroeste 46 Noroeste 0 1016.2 -- 72
2020-06-25 17:00:00 24.6 19 Noroeste 56 Noroeste 0 1016.5 -- 70
2020-06-25 16:00:00 24.8 17 Noroeste 51 Oeste 0 1017 -- 74
2020-06-25 15:00:00 24.7 20 Noroeste 48 Noroeste 0 1016.7 -- 73
2020-06-25 14:00:00 24.7 17 Noroeste 41 Nordeste 0 1017.2 -- 71
2020-06-25 13:00:00 23.5 17 Norte 49 Noroeste 0 1017.8 -- 78
2020-06-25 12:00:00 24.2 17 Norte 54 Norte 0 1017.3 -- 74
2020-06-25 11:00:00 24 19 Norte 49 Norte 0 1017 -- 71
2020-06-25 10:00:00 23.5 24 Norte 48 Noroeste 0 1016.6 -- 69
2020-06-25 09:00:00 22.5 23 Norte 47 Noroeste 0 1016.6 -- 81
2020-06-25 08:00:00 21.9 19 Norte 44 Norte 0 1016 -- 80
2020-06-25 07:00:00 21.8 17 Norte 48 Norte 0 1015.7 -- 80
2020-06-25 06:00:00 21.7 18 Norte 52 Noroeste 0 1015.4 -- 84
2020-06-25 05:00:00 21.9 20 Norte 47 Norte 0 1015.1 -- 85
2020-06-25 04:00:00 22.3 20 Norte 43 Noroeste 0 1015.2 -- 77
2020-06-25 03:00:00 22.2 23 Norte 54 Norte 0 1015.6 -- 77
2020-06-25 02:00:00 22.3 25 Norte 55 Norte 0 1016.1 -- 80
2020-06-25 01:00:00 22.2 28 Norte 57 Noroeste 0 1016.1 -- 80
2020-06-25 00:00:00 22.5 20 Norte 51 Norte 0 1017 -- 80
2020-06-24 23:00:00 22.6 21 Norte 50 Norte 0 1016.3 -- 77
2020-06-24 22:00:00 22.5 22 Norte 56 Noroeste 0 1016.2 -- 77
2020-06-24 21:00:00 22.3 27 Norte 59 Noroeste 0 1015.8 -- 87
2020-06-24 20:00:00 22.8 18 Norte 47 Oeste 0 1015.4 -- 84
2020-06-24 19:00:00 23.7 19 Noroeste 49 Noroeste 0 1015.5 -- 76
2020-06-24 18:00:00 24.1 19 Noroeste 56 Norte 0 1015.9 -- 79
2020-06-24 17:00:00 24.7 16 Noroeste 48 Noroeste 0 1016.2 -- 75
2020-06-24 16:00:00 24.4 13 Norte 44 Noroeste 0 1016.3 -- 79
2020-06-24 15:00:00 24 15 Noroeste 42 Oeste 0 1016.9 -- 77
2020-06-24 14:00:00 24.2 19 Norte 51 Noroeste 0 1016.5 -- 72
2020-06-24 13:00:00 24.6 23 Noroeste 55 Nordeste 0 1016 -- 74
2020-06-24 12:00:00 24.4 22 Noroeste 45 Norte 0 1015.6 -- 71
2020-06-24 11:00:00 24.2 22 Noroeste 49 Norte 0 1015.2 -- 70
2020-06-24 10:00:00 23 21 Noroeste 49 Noroeste 0 1015.5 -- 75
2020-06-24 09:00:00 22.4 19 Norte 49 Norte 0 1015 -- 80
2020-06-24 08:00:00 22.2 20 Norte 49 Norte 0 1014.6 -- 81
2020-06-24 07:00:00 22 18 Norte 44 Norte 0 1014.7 -- 79
2020-06-24 06:00:00 22 20 Noroeste 45 Noroeste 0 1014.4 -- 80
2020-06-24 05:00:00 22 22 Noroeste 47 Noroeste 0 1014.4 -- 79
2020-06-24 04:00:00 22.2 22 Norte 53 Noroeste 0 1014.5 -- 79
2020-06-24 03:00:00 22.4 20 Norte 43 Noroeste 0 1015.1 -- 80
2020-06-24 02:00:00 22.4 18 Norte 42 Norte 0 1015.2 -- 82
2020-06-24 01:00:00 22.3 20 Norte 44 Norte 0 1015.8 -- 84
2020-06-24 00:00:00 22.6 16 Noroeste 40 Norte 0 1016.1 -- 81
2020-06-23 23:00:00 22.7 18 Noroeste 47 Noroeste 0 1015.8 -- 79
2020-06-23 22:00:00 22.8 19 Noroeste 50 Noroeste 0 1015.2 -- 78
2020-06-23 21:00:00 22.8 18 Noroeste 45 Noroeste 0 1014.8 -- 82
2020-06-23 20:00:00 23.6 19 Noroeste 56 Noroeste 0 1014.5 -- 77
2020-06-23 19:00:00 24.4 20 Noroeste 47 Noroeste 0 1014.6 -- 73
2020-06-23 18:00:00 24.7 21 Norte 49 Noroeste 0 1014.1 -- 74
2020-06-23 17:00:00 24.8 21 Noroeste 54 Noroeste 0 1014 -- 71
2020-06-23 16:00:00 25.1 22 Norte 60 Noroeste 0 1014 -- 71
2020-06-23 15:00:00 25 23 Noroeste 53 Noroeste 0 1014.5 -- 69
2020-06-23 14:00:00 25 23 Noroeste 47 Noroeste 0 1014.8 -- 68
2020-06-23 13:00:00 24.9 23 Noroeste 58 Norte 0 1015.2 -- 71
2020-06-23 12:00:00 25.1 20 Noroeste 47 Norte 0 1015.4 -- 72
2020-06-23 11:00:00 24 17 Noroeste 54 Norte 0 1015.5 -- 72
2020-06-23 10:00:00 23.5 15 Noroeste 54 Nordeste 0 1015.4 -- 74
2020-06-23 09:00:00 22.7 18 Norte 42 Norte 0 1015 -- 79
2020-06-23 08:00:00 21.9 15 Norte 43 Norte 0 1014.9 -- 81
2020-06-23 07:00:00 21.6 14 Noroeste 39 Norte 0 1014.8 -- 81
2020-06-23 06:00:00 21.6 14 Noroeste 39 Noroeste 0 1014.5 -- 80
2020-06-23 05:00:00 21.6 20 Noroeste 41 Noroeste 0 1014.4 -- 80
2020-06-23 04:00:00 21.8 19 Noroeste 36 Noroeste 0 1014.6 -- 81
2020-06-23 03:00:00 21.9 19 Noroeste 40 Noroeste 0 1015.2 -- 81
2020-06-23 02:00:00 21.7 21 Noroeste 44 Noroeste 0 1015.9 -- 81
2020-06-23 01:00:00 21.7 17 Noroeste 50 Noroeste 0 1016.4 -- 82
2020-06-23 00:00:00 21.9 22 Noroeste 45 Noroeste 0 1016.5 -- 81
2020-06-22 23:00:00 22.1 24 Norte 46 Norte 0 1015.9 -- 81
2020-06-22 22:00:00 22.5 23 Norte 46 Norte 0 1016 -- 80
2020-06-22 21:00:00 22.6 28 Norte 51 Norte 0 1015.4 -- 80
2020-06-22 20:00:00 23 26 Norte 49 Norte 0 1014.4 -- 80
2020-06-22 19:00:00 24.3 22 Norte 59 Nordeste 0 1014.9 -- 75
2020-06-22 18:00:00 23.4 30 Norte 57 Norte 0 1014.2 -- 77
2020-06-22 17:00:00 24.8 23 Norte 55 Nordeste 0 1015.6 -- 74
2020-06-22 16:00:00 24.3 25 Norte 48 Norte 0 1015.6 -- 73
2020-06-22 15:00:00 23.8 10 Sur 45 Nordeste 0 1016.5 -- 84
2020-06-22 14:00:00 24.8 24 Norte 51 Norte 0 1016.7 -- 72
2020-06-22 13:00:00 24.7 19 Norte 54 Nordeste 0 1017.2 -- 72
2020-06-22 12:00:00 24 23 Norte 47 Norte 0 1018.1 -- 77
2020-06-22 11:00:00 23.5 24 Norte 51 Nordeste 0 1017.6 -- 77
2020-06-22 10:00:00 22.6 21 Norte 45 Noroeste 0 1017.2 -- 77
2020-06-22 09:00:00 22.4 15 Norte 36 Noroeste 0 1017.3 -- 79
2020-06-22 08:00:00 21.9 22 Noroeste 51 Noroeste 0 1016.6 -- 80
2020-06-22 07:00:00 21.8 19 Noroeste 41 Noroeste 0 1016.5 -- 80
2020-06-22 06:00:00 21.7 19 Noroeste 44 Noroeste 0 1016.9 -- 80
2020-06-22 05:00:00 21.8 19 Noroeste 46 Noroeste 0 1016.8 -- 80
2020-06-22 04:00:00 21.9 18 Noroeste 43 Noroeste 0 1017.2 -- 79
2020-06-22 03:00:00 22.1 22 Noroeste 42 Noroeste 0 1017.8 -- 80
2020-06-22 02:00:00 22.2 15 Noroeste 40 Noroeste 0 1018.4 -- 80
2020-06-22 01:00:00 22.5 20 Noroeste 47 Noroeste 0 1019 -- 80
2020-06-22 00:00:00 22.5 17 Noroeste 41 Oeste 0 1019.2 -- 80
2020-06-21 23:00:00 22.8 16 Norte 46 Noroeste 0 1019.1 -- 82
2020-06-21 22:00:00 22.9 18 Noroeste 40 Noroeste 0 1018.6 -- 81
2020-06-21 21:00:00 23 18 Noroeste 41 Norte 0 1018.7 -- 83
2020-06-21 20:00:00 23.8 23 Noroeste 46 Noroeste 0 1018.7 -- 80
2020-06-21 19:00:00 24.5 20 Noroeste 49 Noroeste 0 1019.1 -- 75
2020-06-21 18:00:00 24.7 20 Noroeste 50 Noroeste 0 1019 -- 74
2020-06-21 17:00:00 24.8 21 Noroeste 48 Noroeste 0 1019.5 -- 74
2020-06-21 16:00:00 25.2 22 Norte 54 Noroeste 0 1019.9 -- 74
2020-06-21 15:00:00 24.6 22 Noroeste 49 Noroeste 0 1020.1 -- 72
2020-06-21 14:00:00 24.3 25 Noroeste 52 Noroeste 0 1020.6 -- 73
2020-06-21 13:00:00 24.6 18 Noroeste 48 Noroeste 0 1021 -- 72
2020-06-21 12:00:00 23.6 19 Noroeste 58 Noroeste 0 1020.7 -- 72
2020-06-21 11:00:00 23.5 22 Noroeste 46 Noroeste 0 1020.6 -- 72
2020-06-21 10:00:00 23.7 18 Noroeste 51 Noroeste 0 1020 -- 73
2020-06-21 09:00:00 22.5 19 Noroeste 47 Noroeste 0 1019.7 -- 74
2020-06-21 08:00:00 21.8 18 Noroeste 49 Noroeste 0 1019.7 -- 77
2020-06-21 07:00:00 21.6 18 Noroeste 42 Noroeste 0 1019.1 -- 77
2020-06-21 06:00:00 21.6 14 Noroeste 37 Oeste 0 1019.2 -- 79
2020-06-21 05:00:00 21.6 15 Noroeste 36 Norte 0 1019.2 -- 79
2020-06-21 04:00:00 21.6 16 Noroeste 40 Oeste 0 1019.1 -- 79
2020-06-21 03:00:00 21.7 14 Noroeste 44 Norte 0 1019.5 -- 79
2020-06-21 02:00:00 21.9 21 Norte 51 Norte 0 1020.3 -- 79
2020-06-21 01:00:00 22 21 Norte 43 Noroeste 0 1020.7 -- 81
2020-06-21 00:00:00 22.1 19 Norte 43 Norte 0 1020.5 -- 85
2020-06-20 23:00:00 22.5 17 Noroeste 45 Nordeste 0 1020.3 -- 81
2020-06-20 22:00:00 22.5 17 Noroeste 47 Noroeste 0 1020.1 -- 78
2020-06-20 21:00:00 22.6 23 Noroeste 53 Norte 0 1019.6 -- 79
2020-06-20 20:00:00 23.3 21 Noroeste 42 Noroeste 0 1019.8 -- 75
2020-06-20 19:00:00 23.7 21 Noroeste 55 Noroeste 0 1019.4 -- 72
2020-06-20 18:00:00 24.3 17 Noroeste 47 Noroeste 0 1019.5 -- 75
2020-06-20 17:00:00 24.5 19 Noroeste 48 Noroeste 0 1019.7 -- 73
2020-06-20 16:00:00 25.4 18 Noroeste 46 Noroeste 0 1020.3 -- 73
2020-06-20 15:00:00 24.1 19 Noroeste 49 Noroeste 0 1020.3 -- 74
2020-06-20 14:00:00 25 18 Noroeste 46 Noroeste 0 1020.5 -- 73
2020-06-20 13:00:00 24.4 18 Norte 44 Noroeste 0 1020.7 -- 75
2020-06-20 12:00:00 23.9 20 Noroeste 47 Noroeste 0 1020.7 -- 75
2020-06-20 11:00:00 23.8 19 Noroeste 50 Noroeste 0 1020.2 -- 72
2020-06-20 10:00:00 23.3 22 Norte 50 Noroeste 0 1020.1 -- 80
2020-06-20 09:00:00 22.7 17 Norte 45 Noroeste 0 1020.1 -- 82
2020-06-20 08:00:00 22.1 15 Noroeste 48 Noroeste 0 1019.6 -- 85
2020-06-20 07:00:00 21.9 15 Noroeste 45 Oeste 0 1019.1 -- 86
2020-06-20 06:00:00 22 16 Noroeste 41 Norte 0 1018.6 -- 84
2020-06-20 05:00:00 22.2 13 Noroeste 37 Noroeste 0 1018.5 -- 81
2020-06-20 04:00:00 22.2 15 Noroeste 43 Norte 0 1018.6 -- 81
2020-06-20 03:00:00 22 15 Norte 46 Norte 0 1018.9 -- 85
2020-06-20 02:00:00 22.2 16 Noroeste 44 Oeste 0 1019.1 -- 85
2020-06-20 01:00:00 22.4 21 Noroeste 46 Nordeste 0 1019.5 -- 82
2020-06-20 00:00:00 22.4 20 Noroeste 53 Norte 0 1019.5 -- 84
2020-06-19 23:00:00 22.4 21 Norte 54 Nordeste 0 1018.9 -- 84
2020-06-19 22:00:00 22.6 19 Norte 46 Noroeste 0 1018.5 -- 83
2020-06-19 21:00:00 22.7 19 Noroeste 45 Noroeste 0 1018.1 -- 83
2020-06-19 20:00:00 23.7 21 Noroeste 53 Noroeste 0 1017.6 -- 75
2020-06-19 19:00:00 25 18 Noroeste 47 Norte 0 1017.5 -- 70
2020-06-19 18:00:00 24.5 17 Noroeste 43 Noroeste 0 1017.8 -- 79
2020-06-19 17:00:00 24.2 15 Norte 47 Oeste 0 1018.1 -- 82
2020-06-19 16:00:00 24.1 17 Noroeste 41 Norte 0 1018.3 -- 81
2020-06-19 15:00:00 24.2 12 Noroeste 44 Noroeste 0 1018.5 -- 81
2020-06-19 14:00:00 24.1 14 Noroeste 40 Nordeste 0 1018.8 -- 80
2020-06-19 13:00:00 24.3 14 Noroeste 45 Noroeste 0 1019.1 -- 76
2020-06-19 12:00:00 24.7 17 Norte 56 Nordeste 0 1018.6 -- 75
2020-06-19 11:00:00 24 21 Noroeste 49 Noroeste 0 1018 -- 80
2020-06-19 10:00:00 23.6 17 Norte 41 Noroeste 0 1017.8 -- 77
2020-06-19 09:00:00 22.7 17 Norte 42 Noroeste 0 1017.5 -- 85
2020-06-19 08:00:00 22.2 22 Noroeste 47 Norte 0 1017.1 -- 88
2020-06-19 07:00:00 22.1 18 Noroeste 32 Noroeste 0 1016.8 -- 89
2020-06-19 06:00:00 22.1 15 Norte 36 Noroeste 0 1016.8 -- 89
2020-06-19 05:00:00 22.2 13 Norte 30 Noroeste 0 1016.9 -- 86
2020-06-19 04:00:00 22.1 12 Noroeste 41 Norte 0 1017.1 -- 84
2020-06-19 03:00:00 22.2 10 Noroeste 28 Noroeste 0 1017.3 -- 78
2020-06-19 02:00:00 22.1 18 Norte 48 Norte 0 1017.4 -- 83
2020-06-19 01:00:00 21.9 17 Norte 41 Norte 0 1017.8 -- 86
2020-06-19 00:00:00 22.1 16 Norte 38 Norte 0 1017.7 -- 86
2020-06-18 23:00:00 22.2 12 Norte 38 Noroeste 0 1017.6 -- 86
2020-06-18 22:00:00 22.2 15 Noroeste 40 Norte 0 1017.3 -- 87
2020-06-18 21:00:00 22.5 16 Norte 48 Norte 0 1017 -- 83
2020-06-18 20:00:00 22.8 17 Norte 44 Noroeste 0 1016.4 -- 83
2020-06-18 19:00:00 22.9 17 Noroeste 44 Nordeste 0 1016.1 -- 84
2020-06-18 18:00:00 24.1 14 Noroeste 35 Noroeste 0 1016.1 -- 79
2020-06-18 17:00:00 25.6 14 Noroeste 40 Oeste 0 1016 -- 72
2020-06-18 16:00:00 25.7 14 Noroeste 41 Noroeste 0 1016.1 -- 69
2020-06-18 15:00:00 25.4 17 Noroeste 42 Norte 0 1015.9 -- 71
2020-06-18 14:00:00 25.4 10 Norte 37 Noroeste 0 1016.3 -- 72
2020-06-18 13:00:00 25.7 11 Norte 39 Norte 0 1016.6 -- 71
2020-06-18 12:00:00 24.4 15 Norte 38 Noroeste 0 1016.7 -- 76
2020-06-18 11:00:00 24.1 15 Noroeste 41 Oeste 0 1016.4 -- 78
2020-06-18 10:00:00 23.7 13 Norte 37 Norte 0 1016.1 -- 78
2020-06-18 09:00:00 22.9 13 Norte 41 Norte 0 1015.6 -- 80
2020-06-18 08:00:00 22.1 13 Norte 38 Noroeste 0 1015.1 -- 86
2020-06-18 07:00:00 22.1 12 Norte 29 Nordeste 0 1014.7 -- 84
2020-06-18 06:00:00 22.1 11 Norte 27 Norte 0 1014.7 -- 85
2020-06-18 05:00:00 22.3 9 Norte 31 Norte 0 1014.8 -- 83
2020-06-18 04:00:00 22.4 10 Norte 27 Noroeste 0 1014.7 -- 86
2020-06-18 03:00:00 22.6 9 Norte 26 Norte 0 1015.2 -- 85
2020-06-18 02:00:00 22.8 13 Norte 33 Noroeste 0 1015.4 -- 83
2020-06-18 01:00:00 23.1 12 Norte 27 Noroeste 0 1016 -- 80
2020-06-18 00:00:00 23.2 7 Norte 23 Norte 0 1016.5 -- 84
2020-06-17 23:00:00 23.2 12 Norte 26 Nordeste 0 1016.3 -- 84
2020-06-17 22:00:00 23.8 8 Norte 30 Norte 0 1015.9 -- 80
2020-06-17 21:00:00 24 17 Norte 32 Norte 0 1015.2 -- 76
2020-06-17 20:00:00 25.2 18 Noroeste 34 Noroeste 0 1015 -- 69
2020-06-17 19:00:00 24.9 6 Sur 12 Sur 0 1014.8 -- 81
2020-06-17 18:00:00 26.1 4 Sudeste 13 Sudeste 0 1015.4 -- 77
2020-06-17 17:00:00 26 6 Sudeste 21 Sur 0 1015.7 -- 81
2020-06-17 16:00:00 25.4 11 Sur 30 Nordeste 0 1016 -- 77
2020-06-17 15:00:00 26.7 12 Norte 34 Nordeste 0 1015.7 -- 73
2020-06-17 14:00:00 26.5 10 Norte 30 Norte 0 1016.4 -- 77
2020-06-17 13:00:00 25.5 13 Norte 40 Este 0 1017 -- 81
2020-06-17 12:00:00 25.4 8 Norte 35 Norte 0 1017.3 -- 83
2020-06-17 11:00:00 25.5 17 Norte 31 Norte 0 1017.1 -- 81
2020-06-17 10:00:00 25.1 9 Norte 32 Norte 0 1016.8 -- 80
2020-06-17 09:00:00 24.2 9 Nordeste 26 Nordeste 0 1017 -- 82
2020-06-17 08:00:00 24.2 4 Nordeste 27 Norte 0 1016.9 -- 79
2020-06-17 07:00:00 24.6 0 Calma 30 Norte 0 1016.4 -- 76
2020-06-17 06:00:00 24.3 14 Norte 27 Norte 0 1016.4 -- 81
2020-06-17 05:00:00 23.8 22 Norte 46 Norte 0 1017.2 -- 86
2020-06-17 04:00:00 24.2 9 Norte 30 Norte 0.2 1016.8 -- 85
2020-06-17 03:00:00 27 21 Norte 40 Norte 0 1017.9 -- 60
2020-06-17 02:00:00 26.4 16 Norte 38 Noroeste 0 1018.2 -- 64
2020-06-17 01:00:00 26.9 19 Norte 46 Norte 0 1019.2 -- 61
2020-06-17 00:00:00 25.5 7 Este 28 Sur 0 1020.6 -- 78
2020-06-16 23:00:00 24.3 4 Sudeste 25 Sur 0 1020.1 -- 90
2020-06-16 22:00:00 29 9 Norte 37 Norte 0 1020.3 -- 51
2020-06-16 21:00:00 29.1 4 Noroeste 35 Noroeste 0 1020.7 -- 50
2020-06-16 20:00:00 29 15 Norte 46 Nordeste 0 1019.2 -- 50
2020-06-16 19:00:00 29.3 14 Norte 41 Norte 0 1019.5 -- 50
2020-06-16 18:00:00 28.2 21 Norte 54 Norte 0 1019.6 -- 55
2020-06-16 17:00:00 27.8 19 Norte 42 Norte 0 1019.9 -- 63
2020-06-16 16:00:00 25.4 11 Sudeste 28 Este 0 1020 -- 91
2020-06-16 15:00:00 25.9 7 Sur 24 Sur 0 1020.4 -- 85
2020-06-16 14:00:00 24.4 11 Sudeste 18 Sur 0 1021.2 -- 93
2020-06-16 13:00:00 24.4 5 Sudeste 21 Sur 0 1021.1 -- 93
2020-06-16 12:00:00 24.5 14 Sur 19 Sur 0 1021 -- 90
2020-06-16 11:00:00 25.4 5 Sur 12 Sur 0 1020.9 -- 81
2020-06-16 10:00:00 26.5 4 Norte 16 Noroeste 0 1021.2 -- 71
2020-06-16 09:00:00 24 9 Noroeste 17 Noroeste 0 1021 -- 88
2020-06-16 08:00:00 22.9 5 Este 21 Nordeste 0 1020.8 -- 95
2020-06-16 07:00:00 22.9 6 Norte 13 Nordeste 0 1020.1 -- 94
2020-06-16 06:00:00 23.2 5 Norte 10 Norte 0 1020.1 -- 92
2020-06-16 05:00:00 23.2 0 Calma 15 Este 0 1020.5 -- 93
2020-06-16 04:00:00 23.2 6 Nordeste 21 Sur 0 1021.1 -- 93
2020-06-16 03:00:00 23.1 15 Sur 20 Sudeste 0 1021.2 -- 94
2020-06-16 02:00:00 23.3 7 Sur 17 Sur 0 1021.3 -- 92
2020-06-16 01:00:00 23.6 5 Sudeste 22 Norte 0 1022 -- 93
2020-06-16 00:00:00 26.8 13 Norte 22 Norte 0 1022.5 -- 66
2020-06-15 23:00:00 26.6 10 Noroeste 28 Norte 0 1021.8 -- 68
2020-06-15 22:00:00 26 16 Norte 33 Noroeste 0 1021.5 -- 72
2020-06-15 21:00:00 27.1 13 Norte 30 Norte 0 1021.1 -- 66
2020-06-15 20:00:00 27.1 15 Norte 36 Noroeste 0 1020.3 -- 67
2020-06-15 19:00:00 27.9 10 Norte 36 Nordeste 0 1019.5 -- 65
2020-06-15 18:00:00 27 6 Nordeste 25 Nordeste 0 1020.4 -- 72
2020-06-15 17:00:00 25 9 Sur 26 Sur 0 1020.6 -- 89
2020-06-15 16:00:00 25.3 12 Sur 28 Sur 0 1020.8 -- 82
2020-06-15 15:00:00 24.2 21 Sur 30 Sur 0 1021.1 -- 90
2020-06-15 14:00:00 25.4 7 Sudeste 26 Sur 0 1020.6 -- 84
2020-06-15 13:00:00 23.9 12 Sur 41 Sur 0 1021.4 -- 90
2020-06-15 12:00:00 23 16 Sur 30 Sur 0 1022 -- 93
2020-06-15 11:00:00 25.4 4 Sudoeste 40 Norte 0 1021.4 -- 75
2020-06-15 10:00:00 23.2 0 Calma 24 Sudeste 0 1020.7 -- 89
2020-06-15 09:00:00 23 5 Sudoeste 20 Sur 0 1020.6 -- 91
2020-06-15 08:00:00 22.6 4 Nordeste 30 Oeste 0 1020.3 -- 92
2020-06-15 07:00:00 22 3 Norte 18 Nordeste 0 1018.5 -- 94
2020-06-15 06:00:00 22.1 2 Oeste 18 Sur 0.3 1019.3 -- 95
2020-06-15 05:00:00 22.1 3 Sudoeste 26 Este 0.5 1019.6 -- 95
2020-06-15 04:00:00 23 5 Sudeste 20 Sudeste 0.1 1019.1 -- 90
2020-06-15 03:00:00 23.3 8 Noroeste 19 Noroeste 0 1018.6 -- 88
2020-06-15 02:00:00 23.2 0 Calma 18 Sur 0 1019.3 -- 89
2020-06-15 01:00:00 22.9 8 Sur 17 Sur 0 1019.9 -- 91
2020-06-15 00:00:00 23.5 3 Norte 18 Sur 0 1019.5 -- 83
2020-06-14 23:00:00 23.6 14 Sur 32 Sur 0 1019.4 -- 84
2020-06-14 22:00:00 24.1 3 Norte 19 Nordeste 0 1017.9 -- 81
2020-06-14 21:00:00 23.1 9 Nordeste 22 Nordeste 0 1018.3 -- 85
2020-06-14 20:00:00 23.2 11 Nordeste 29 Nordeste 0 1018.5 -- 86
2020-06-14 19:00:00 23.4 5 Este 16 Nordeste 0 1018.6 -- 81
2020-06-14 18:00:00 23.4 9 Nordeste 24 Este 0 1018.9 -- 82
2020-06-14 17:00:00 24.3 8 Nordeste 15 Este 0 1019.5 -- 80
2020-06-14 16:00:00 23.9 6 Este 28 Sudoeste 0 1021.2 -- 86
2020-06-14 15:00:00 23.3 15 Sur 28 Sur 0 1020.6 -- 81
2020-06-14 14:00:00 24 10 Sur 23 Sur 0 1020.4 -- 74
2020-06-14 13:00:00 22.9 14 Sur 20 Sur 0 1020.9 -- 82
2020-06-14 12:00:00 23.9 5 Sudeste 12 Nordeste 0 1020.9 -- 81
2020-06-14 11:00:00 23.7 5 Este 12 Este 0 1020.3 -- 76
2020-06-14 10:00:00 23.7 3 Sudeste 10 Este 0 1019.9 -- 74
2020-06-14 09:00:00 22 3 Noroeste 12 Noroeste 0 1019.7 -- 70
2020-06-14 08:00:00 20.3 7 Noroeste 13 Noroeste 0 1019.6 -- 72
2020-06-14 07:00:00 20.3 7 Noroeste 20 Noroeste 0 1019.1 -- 71
2020-06-14 06:00:00 20.2 8 Noroeste 14 Noroeste 0 1018.7 -- 69
2020-06-14 05:00:00 20.2 6 Noroeste 10 Noroeste 0 1018.5 -- 71
2020-06-14 04:00:00 20.9 6 Noroeste 11 Norte 0 1018.4 -- 68
2020-06-14 03:00:00 21.5 6 Noroeste 14 Noroeste 0 1018.6 -- 69
2020-06-14 02:00:00 21.9 8 Noroeste 17 Norte 0 1018.8 -- 72
2020-06-14 01:00:00 22 8 Noroeste 15 Noroeste 0 1019.2 -- 75
2020-06-14 00:00:00 22.2 6 Noroeste 21 Norte 0 1019.2 -- 71
2020-06-13 23:00:00 22.5 12 Norte 20 Norte 0 1018.8 -- 66
2020-06-13 22:00:00 22.6 6 Norte 20 Norte 0 1018.2 -- 75
2020-06-13 21:00:00 22.7 8 Norte 27 Este 0 1017.6 -- 77
2020-06-13 20:00:00 23.4 4 Nordeste 19 Nordeste 0 1016.7 -- 75
2020-06-13 19:00:00 22.6 15 Sur 25 Nordeste 0 1017 -- 79
2020-06-13 18:00:00 23.8 12 Nordeste 30 Norte 0 1016.2 -- 71
2020-06-13 17:00:00 24.7 6 Nordeste 18 Este 0 1017.1 -- 69
2020-06-13 16:00:00 25 4 Sudeste 18 Sur 0 1017 -- 75
2020-06-13 15:00:00 23 12 Sur 22 Sur 0 1017.2 -- 79
2020-06-13 14:00:00 23 15 Sur 24 Sur 0 1017.4 -- 77
2020-06-13 13:00:00 23.7 7 Sudeste 15 Sudeste 0 1017.4 -- 77
2020-06-13 12:00:00 24.4 7 Este 20 Nordeste 0 1018 -- 70
2020-06-13 11:00:00 23.6 12 Nordeste 26 Norte 0 1017 -- 71
2020-06-13 10:00:00 22.7 12 Nordeste 28 Nordeste 0 1016.3 -- 75
2020-06-13 09:00:00 22.3 7 Norte 12 Norte 0 1016.3 -- 75
2020-06-13 08:00:00 20.8 5 Noroeste 10 Norte 0 1015.8 -- 78
2020-06-13 07:00:00 20.7 3 Noroeste 15 Norte 0 1016.1 -- 79
2020-06-13 06:00:00 20.4 8 Noroeste 13 Noroeste 0 1015.6 -- 80
2020-06-13 05:00:00 20.5 3 Norte 11 Noroeste 0 1015.9 -- 81
2020-06-13 04:00:00 20.8 4 Noroeste 17 Nordeste 0 1016.3 -- 80
2020-06-13 03:00:00 21 7 Noroeste 22 Norte 0 1015.7 -- 81
2020-06-13 02:00:00 21.2 10 Noroeste 20 Noroeste 0 1016.2 -- 79
2020-06-13 01:00:00 21.2 12 Noroeste 26 Norte 0 1016.6 -- 80
2020-06-13 00:00:00 21.3 9 Noroeste 28 Noroeste 0 1016.8 -- 77
2020-06-12 23:00:00 21.5 10 Noroeste 36 Norte 0 1016.1 -- 76
2020-06-12 22:00:00 21.4 17 Norte 37 Noroeste 0 1015.4 -- 78
2020-06-12 21:00:00 22.2 5 Noroeste 29 Noroeste 0 1016.1 -- 75
2020-06-12 20:00:00 22.4 15 Norte 28 Norte 0 1015.7 -- 69
2020-06-12 19:00:00 23.4 8 Noroeste 30 Nordeste 0 1016.1 -- 66
2020-06-12 18:00:00 23.1 15 Nordeste 29 Nordeste 0 1016.4 -- 66
2020-06-12 17:00:00 24.2 13 Nordeste 33 Nordeste 0 1016.2 -- 60
2020-06-12 16:00:00 23.4 12 Nordeste 28 Nordeste 0 1016.6 -- 61
2020-06-12 15:00:00 24.4 13 Nordeste 27 Este 0 1016.5 -- 57
2020-06-12 14:00:00 25.1 8 Nordeste 26 Nordeste 0 1017.1 -- 55
2020-06-12 13:00:00 24.8 5 Noroeste 26 Nordeste 0 1017.8 -- 54
2020-06-12 12:00:00 23.4 10 Norte 32 Noroeste 0 1017.7 -- 58
2020-06-12 11:00:00 22.6 10 Norte 31 Nordeste 0 1017.5 -- 63
2020-06-12 10:00:00 21.5 18 Noroeste 31 Noroeste 0 1017.3 -- 73
2020-06-12 09:00:00 21.2 12 Noroeste 28 Nordeste 0 1016.9 -- 79
2020-06-12 08:00:00 20.3 10 Norte 24 Noroeste 0 1016.3 -- 83
2020-06-12 07:00:00 20.1 11 Noroeste 22 Noroeste 0 1016.2 -- 82
2020-06-12 06:00:00 20.3 11 Norte 23 Norte 0 1016 -- 83
2020-06-12 05:00:00 20.3 10 Norte 24 Noroeste 0 1016 -- 83
2020-06-12 04:00:00 20.5 11 Norte 25 Norte 0 1016.2 -- 83
2020-06-12 03:00:00 20.6 9 Noroeste 33 Noroeste 0 1016.6 -- 85
2020-06-12 02:00:00 20.9 12 Norte 29 Noroeste 0 1017 -- 84
2020-06-12 01:00:00 20.9 13 Norte 25 Norte 0 1017.4 -- 84
2020-06-12 00:00:00 21 10 Noroeste 23 Norte 0 1018 -- 83
2020-06-11 23:00:00 21.1 11 Norte 30 Oeste 0 1017.6 -- 83
2020-06-11 22:00:00 21.2 15 Noroeste 27 Noroeste 0 1016.8 -- 85
2020-06-11 21:00:00 21.5 12 Noroeste 25 Noroeste 0 1017.5 -- 86
2020-06-11 20:00:00 21.3 0 Calma 10 Norte 0 1016.9 -- 93
2020-06-11 19:00:00 21.5 4 Oeste 12 Sur 0 1017.3 -- 91
2020-06-11 18:00:00 22.3 6 Sur 13 Sur 0 1017.5 -- 87
2020-06-11 17:00:00 22.6 5 Oeste 18 Oeste 0 1017.6 -- 82
2020-06-11 16:00:00 22.9 3 Norte 19 Nordeste 0 1017.3 -- 80
2020-06-11 15:00:00 22.9 6 Nordeste 17 Este 0 1017.9 -- 78
2020-06-11 14:00:00 22.6 8 Nordeste 21 Nordeste 0 1018 -- 77
2020-06-11 13:00:00 22.4 9 Nordeste 19 Norte 0 1018.6 -- 78
2020-06-11 12:00:00 22.7 8 Noroeste 44 Noroeste 0 1018.6 -- 77
2020-06-11 11:00:00 22.9 12 Noroeste 27 Noroeste 0 1017.6 -- 77
2020-06-11 10:00:00 22.1 13 Noroeste 25 Noroeste 0 1017.8 -- 80
2020-06-11 09:00:00 21.6 13 Noroeste 22 Noroeste 0 1017.7 -- 82
2020-06-11 08:00:00 21.2 12 Noroeste 24 Noroeste 0 1017.7 -- 85
2020-06-11 07:00:00 21.3 10 Noroeste 24 Noroeste 0 1017.5 -- 82
2020-06-11 06:00:00 21.4 14 Noroeste 25 Noroeste 0 1017.1 -- 81
2020-06-11 05:00:00 21.4 13 Noroeste 30 Noroeste 0 1017.1 -- 80
2020-06-11 04:00:00 21.2 14 Noroeste 25 Oeste 0 1017.3 -- 85
2020-06-11 03:00:00 21.3 12 Noroeste 24 Oeste 0 1017.8 -- 85
2020-06-11 02:00:00 21.1 9 Noroeste 26 Noroeste 0 1018.2 -- 85
2020-06-11 01:00:00 21.2 13 Noroeste 26 Noroeste 0 1018.6 -- 84
2020-06-11 00:00:00 21.5 11 Noroeste 30 Noroeste 0 1018.5 -- 81
2020-06-10 23:00:00 21.4 14 Noroeste 30 Noroeste 0 1018 -- 83
2020-06-10 22:00:00 21.4 15 Noroeste 32 Noroeste 0 1017.8 -- 83
2020-06-10 21:00:00 21.6 14 Noroeste 34 Norte 0 1017.3 -- 81
2020-06-10 20:00:00 22.3 13 Noroeste 30 Noroeste 0 1017.4 -- 80
2020-06-10 19:00:00 23 14 Noroeste 28 Noroeste 0 1017 -- 77
2020-06-10 18:00:00 23.7 17 Noroeste 36 Noroeste 0 1017.1 -- 73
2020-06-10 17:00:00 23.6 14 Noroeste 32 Noroeste 0 1017.6 -- 73
2020-06-10 16:00:00 24.1 18 Noroeste 40 Noroeste 0 1017.9 -- 71
2020-06-10 15:00:00 23.3 22 Noroeste 40 Noroeste 0 1018 -- 72
2020-06-10 14:00:00 22.4 17 Noroeste 37 Noroeste 0 1018.5 -- 77
2020-06-10 13:00:00 22.8 18 Noroeste 35 Oeste 0 1018.6 -- 77
2020-06-10 12:00:00 23.4 10 Noroeste 25 Noroeste 0 1018.4 -- 73
2020-06-10 11:00:00 23.4 14 Noroeste 30 Noroeste 0 1018.2 -- 72
2020-06-10 10:00:00 22.7 17 Noroeste 30 Noroeste 0 1018.1 -- 74
2020-06-10 09:00:00 22 15 Noroeste 35 Noroeste 0 1017.8 -- 78
2020-06-10 08:00:00 21.1 14 Noroeste 33 Norte 0 1017.6 -- 85
2020-06-10 07:00:00 21 13 Noroeste 33 Noroeste 0 1017.2 -- 84
2020-06-10 06:00:00 21.1 14 Noroeste 30 Noroeste 0 1017.3 -- 83
2020-06-10 05:00:00 21.3 10 Noroeste 27 Noroeste 0 1017.1 -- 86
2020-06-10 04:00:00 21.6 10 Noroeste 21 Norte 0 1017.7 -- 86
2020-06-10 03:00:00 21.6 10 Norte 24 Noroeste 0 1018.3 -- 86
2020-06-10 02:00:00 21.5 13 Noroeste 33 Noroeste 0 1018.6 -- 88
2020-06-10 01:00:00 21.7 12 Noroeste 31 Noroeste 0 1018.4 -- 86
2020-06-10 00:00:00 21.8 15 Noroeste 34 Noroeste 0 1018 -- 89
2020-06-09 23:00:00 22.2 10 Noroeste 22 Noroeste 0 1017.6 -- 86
2020-06-09 22:00:00 22.4 10 Noroeste 28 Noroeste 0 1017.2 -- 85
2020-06-09 21:00:00 22.5 11 Noroeste 35 Noroeste 0 1017.1 -- 87
2020-06-09 20:00:00 22.5 17 Noroeste 72 Noroeste 0 1016.2 -- 87
2020-06-09 19:00:00 23 17 Noroeste 44 Noroeste 0 1016.1 -- 82
2020-06-09 18:00:00 23.5 22 Noroeste 46 Noroeste 0 1016.3 -- 78
2020-06-09 17:00:00 24.4 18 Noroeste 43 Oeste 0 1016.6 -- 71
2020-06-09 16:00:00 24.5 19 Noroeste 44 Oeste 0 1016.7 -- 74
2020-06-09 15:00:00 24.4 17 Noroeste 33 Noroeste 0 1017.3 -- 75
2020-06-09 14:00:00 24.9 6 Norte 28 Norte 0 1017.5 -- 74
2020-06-09 13:00:00 23.9 10 Sur 25 Sur 0 1018.3 -- 86
2020-06-09 12:00:00 24.2 13 Noroeste 36 Noroeste 0 1017.9 -- 68
2020-06-09 11:00:00 23.5 17 Noroeste 41 Noroeste 0 1017.8 -- 75
2020-06-09 10:00:00 22.8 20 Noroeste 45 Oeste 0 1017.5 -- 80
2020-06-09 09:00:00 22.3 15 Norte 35 Noroeste 0 1017.5 -- 85
2020-06-09 08:00:00 21.5 13 Noroeste 32 Noroeste 0 1017.1 -- 89
2020-06-09 07:00:00 21.2 11 Norte 27 Noroeste 0 1016.9 -- 90
2020-06-09 06:00:00 21.4 10 Norte 25 Noroeste 0 1016.6 -- 90
2020-06-09 05:00:00 21.4 13 Noroeste 33 Norte 0 1016.5 -- 90
2020-06-09 04:00:00 21.4 11 Norte 37 Norte 0 1016.8 -- 91
2020-06-09 03:00:00 21.5 12 Noroeste 29 Norte 0 1017.1 -- 91
2020-06-09 02:00:00 21.7 11 Norte 26 Noroeste 0 1017.8 -- 90
2020-06-09 01:00:00 21.9 11 Norte 31 Norte 0 1018.1 -- 90
2020-06-09 00:00:00 21.9 13 Norte 43 Norte 0 1018 -- 90
2020-06-08 23:00:00 22.1 14 Noroeste 32 Noroeste 0 1018 -- 89
2020-06-08 22:00:00 22.4 16 Noroeste 36 Noroeste 0 1017.5 -- 88
2020-06-08 21:00:00 22.8 17 Noroeste 40 Noroeste 0 1016.8 -- 82
2020-06-08 20:00:00 22.7 16 Noroeste 40 Oeste 0 1016.6 -- 84
2020-06-08 19:00:00 23.5 18 Noroeste 38 Noroeste 0 1016.2 -- 80
2020-06-08 18:00:00 25 14 Noroeste 38 Noroeste 0 1016.1 -- 75
2020-06-08 17:00:00 25 17 Noroeste 40 Noroeste 0 1016.2 -- 75
2020-06-08 16:00:00 24.5 19 Noroeste 37 Noroeste 0 1016.5 -- 77
2020-06-08 15:00:00 24.6 14 Noroeste 35 Noroeste 0 1016.6 -- 73
2020-06-08 14:00:00 24.7 17 Noroeste 39 Noroeste 0 1016.9 -- 75
2020-06-08 13:00:00 24.7 17 Noroeste 47 Noroeste 0 1016.8 -- 75
2020-06-08 12:00:00 23.8 20 Noroeste 42 Norte 0 1016.8 -- 74
2020-06-08 11:00:00 24.2 17 Noroeste 42 Noroeste 0 1016.3 -- 75
2020-06-08 10:00:00 23.4 17 Noroeste 41 Noroeste 0 1015.9 -- 74
2020-06-08 09:00:00 23 16 Noroeste 32 Noroeste 0 1015.7 -- 76
2020-06-08 08:00:00 21.4 15 Noroeste 33 Norte 0 1015.6 -- 83
2020-06-08 07:00:00 21.3 15 Noroeste 26 Noroeste 0 1016.2 -- 85
2020-06-08 06:00:00 21.6 13 Norte 33 Noroeste 0 1015.9 -- 84
2020-06-08 05:00:00 21.4 10 Norte 25 Noroeste 0 1015.9 -- 85
2020-06-08 04:00:00 21.5 12 Noroeste 32 Norte 0 1015.9 -- 87
2020-06-08 03:00:00 21.6 15 Norte 34 Norte 0 1015.9 -- 86
2020-06-08 02:00:00 21.7 13 Norte 28 Nordeste 0 1016.2 -- 87
2020-06-08 01:00:00 22 13 Norte 26 Norte 0 1017.1 -- 86
2020-06-08 00:00:00 21.9 12 Norte 29 Norte 0 1017.4 -- 89
2020-06-07 23:00:00 22.2 11 Norte 33 Norte 0 1017.3 -- 89
2020-06-07 22:00:00 22.3 19 Norte 39 Norte 0 1017 -- 85
2020-06-07 21:00:00 22.8 12 Noroeste 27 Nordeste 0 1016.4 -- 78
2020-06-07 20:00:00 23.7 12 Norte 29 Nordeste 0 1015.9 -- 79
2020-06-07 19:00:00 24.6 5 Sudoeste 28 Este 0 1015.6 -- 80
2020-06-07 18:00:00 24.7 5 Sur 31 Nordeste 0 1015.3 -- 83
2020-06-07 17:00:00 23.2 16 Sur 26 Sur 0 1015.6 -- 87
2020-06-07 16:00:00 23.4 14 Sur 23 Sur 0 1016.1 -- 86
2020-06-07 15:00:00 22.5 18 Sur 24 Sur 0 1016.5 -- 89
2020-06-07 14:00:00 22.9 14 Sur 22 Sur 0 1016.9 -- 90
2020-06-07 13:00:00 22.3 17 Sur 27 Sur 0 1017.1 -- 90
2020-06-07 12:00:00 24.3 6 Sudoeste 36 Nordeste 0 1016.6 -- 81
2020-06-07 11:00:00 23.7 10 Nordeste 35 Este 0 1016.3 -- 84
2020-06-07 10:00:00 22.6 15 Nordeste 27 Este 0 1015.9 -- 89
2020-06-07 09:00:00 22.4 6 Norte 20 Norte 0 1015.9 -- 87
2020-06-07 08:00:00 21.2 6 Norte 17 Norte 0 1015.6 -- 88
2020-06-07 07:00:00 21 5 Noroeste 19 Norte 0 1015.1 -- 84
2020-06-07 06:00:00 21.5 6 Norte 23 Nordeste 0 1014.7 -- 88
2020-06-07 05:00:00 21.7 4 Nordeste 21 Norte 0 1014.3 -- 88
2020-06-07 04:00:00 21.7 12 Norte 23 Nordeste 0 1014.1 -- 87
2020-06-07 03:00:00 21.6 8 Norte 25 Nordeste 0 1014.4 -- 91
2020-06-07 02:00:00 21.6 10 Norte 24 Norte 0 1014.5 -- 91
2020-06-07 01:00:00 22.1 0 Calma 9 Nordeste 0 1015.2 -- 86
2020-06-07 00:00:00 22.4 7 Sur 14 Oeste 0 1014.9 -- 84
2020-06-06 23:00:00 22.4 5 Sudoeste 12 Este 0 1014.3 -- 87
2020-06-06 22:00:00 22.8 0 Calma 6 Oeste 0 1013.6 -- 86
2020-06-06 21:00:00 22.4 3 Sur 13 Sur 0 1013.3 -- 90
2020-06-06 20:00:00 23.2 5 Este 18 Nordeste 0 1013.2 -- 89
2020-06-06 19:00:00 23.8 4 Este 24 Este 0 1012.9 -- 87
2020-06-06 18:00:00 24.5 7 Nordeste 33 Noroeste 0 1012.8 -- 84
2020-06-06 17:00:00 25.7 7 Norte 28 Este 0 1012.6 -- 73
2020-06-06 16:00:00 24.5 13 Norte 35 Sur 0 1012.8 -- 74
2020-06-06 15:00:00 25.2 10 Este 37 Sur 0 1013.3 -- 77
2020-06-06 14:00:00 23.6 15 Sur 42 Sudoeste 0 1013.8 -- 84
2020-06-06 13:00:00 24.2 5 Sudeste 27 Nordeste 0 1013.8 -- 78
2020-06-06 12:00:00 23.8 14 Sur 36 Sur 0 1013.4 -- 84
2020-06-06 11:00:00 23.9 13 Sur 30 Sur 0 1013 -- 72
2020-06-06 10:00:00 23 13 Sur 18 Sur 0 1012.4 -- 87
2020-06-06 09:00:00 22.7 4 Sur 12 Noroeste 0 1012.2 -- 90
2020-06-06 08:00:00 20.9 4 Noroeste 8 Oeste 0 1011.5 -- 92
2020-06-06 07:00:00 21.1 2 Oeste 9 Oeste 0 1011 -- 90
2020-06-06 06:00:00 21.5 0 Calma 7 Norte 0 1010.9 -- 90
2020-06-06 05:00:00 21.8 0 Calma 21 Sur 0 1010.7 -- 90
2020-06-06 04:00:00 21.9 3 Sur 16 Sur 0 1010.8 -- 91
2020-06-06 03:00:00 22.2 2 Sudoeste 26 Sudoeste 0 1011.2 -- 90
2020-06-06 02:00:00 22.3 8 Sur 30 Sudoeste 0 1011.6 -- 89
2020-06-06 01:00:00 22.1 9 Sur 25 Sur 0 1012.2 -- 92
2020-06-06 00:00:00 22.4 7 Sur 22 Sur 0 1012.3 -- 89
2020-06-05 23:00:00 22.5 6 Sudoeste 26 Sudoeste 0 1012.2 -- 89
2020-06-05 22:00:00 22.6 4 Sur 25 Sudoeste 0 1012.2 -- 89
2020-06-05 21:00:00 22.6 10 Sur 30 Sur 0 1011.8 -- 90
2020-06-05 20:00:00 23.2 13 Sur 35 Sudoeste 0 1011 -- 81
2020-06-05 19:00:00 22.7 16 Sur 31 Sur 0 1010.9 -- 90
2020-06-05 18:00:00 23.4 19 Sur 37 Sur 0 1010.8 -- 84
2020-06-05 17:00:00 23.3 21 Sur 37 Sur 0 1010.7 -- 86
2020-06-05 16:00:00 22.7 19 Sur 41 Sur 0 1010.6 -- 92
2020-06-05 15:00:00 21.5 23 Sur 36 Sudoeste 1.6 1011.6 -- 95
2020-06-05 14:00:00 21.1 21 Sur 40 Sudeste 1.9 1012.1 -- 96
2020-06-05 13:00:00 22.6 23 Sur 29 Sur 0 1012.2 -- 94
2020-06-05 12:00:00 22.6 22 Sur 35 Sur 0 1012.1 -- 94
2020-06-05 11:00:00 22.6 23 Sur 34 Sur 0 1012 -- 92
2020-06-05 10:00:00 22.3 18 Sur 27 Sur 0 1011.5 -- 93
2020-06-05 09:00:00 21.9 21 Sur 24 Sur 0 1011.2 -- 95
2020-06-05 08:00:00 21.7 15 Sudeste 22 Sudeste 0 1011.2 -- 95
2020-06-05 07:00:00 21.7 12 Sudeste 22 Sudeste 0 1011.1 -- 95
2020-06-05 06:00:00 21.7 14 Sudeste 21 Sur 0 1011.1 -- 95
2020-06-05 05:00:00 21.2 5 Sur 21 Sur 0 1011 -- 94
2020-06-05 04:00:00 21.4 10 Sur 20 Sur 0 1011.3 -- 96
2020-06-05 03:00:00 21.8 12 Sudeste 23 Sur 0 1012 -- 96
2020-06-05 02:00:00 22.1 12 Sur 18 Sudeste 0 1012.6 -- 94
2020-06-05 01:00:00 22.1 6 Sur 9 Sur 0 1012.9 -- 93
2020-06-05 00:00:00 22.7 0 Calma 8 Este 0 1013.4 -- 92
2020-06-04 23:00:00 22.8 0 Calma 12 Norte 0 1012.9 -- 92
2020-06-04 22:00:00 22.6 0 Calma 14 Este 0 1012.6 -- 92
2020-06-04 21:00:00 23.3 5 Nordeste 16 Nordeste 0 1012 -- 90
2020-06-04 20:00:00 23.8 6 Nordeste 18 Norte 0 1011.4 -- 77
2020-06-04 19:00:00 25 4 Este 11 Sudeste 0 1011.3 -- 82
2020-06-04 18:00:00 24.3 6 Sudeste 18 Sudeste 0 1011.6 -- 86
2020-06-04 17:00:00 24.2 11 Sur 18 Sur 0 1011.6 -- 85
2020-06-04 16:00:00 23.7 13 Sudeste 20 Sur 0 1011.8 -- 87
2020-06-04 15:00:00 24.1 10 Sudeste 17 Sudeste 0 1012.2 -- 88
2020-06-04 14:00:00 23.8 5 Sudeste 27 Sur 0 1012.7 -- 90
2020-06-04 13:00:00 22.9 22 Sur 33 Sur 0 1013.1 -- 90
2020-06-04 12:00:00 22.7 21 Sur 34 Sur 0 1013.2 -- 90
2020-06-04 11:00:00 22.7 21 Sur 35 Sur 0 1012.8 -- 90
2020-06-04 10:00:00 24.4 2 Sudeste 8 Este 0 1012.5 -- 87
2020-06-04 09:00:00 23 4 Sudeste 9 Noroeste 0 1012.2 -- 89
2020-06-04 08:00:00 20.9 5 Norte 11 Noroeste 0 1011.7 -- 91
2020-06-04 07:00:00 20.8 5 Noroeste 12 Noroeste 0 1011.3 -- 91
2020-06-04 06:00:00 20.9 3 Noroeste 7 Noroeste 0 1011.2 -- 90
2020-06-04 05:00:00 21.1 0 Calma 5 Norte 0 1011.1 -- 90
2020-06-04 04:00:00 21.2 2 Norte 11 Noroeste 0 1011.2 -- 90
2020-06-04 03:00:00 21.4 6 Noroeste 11 Nordeste 0 1011.6 -- 90
2020-06-04 02:00:00 22.1 0 Calma 10 Norte 0 1012.2 -- 91
2020-06-04 01:00:00 22 6 Noroeste 10 Noroeste 0 1012.7 -- 90
2020-06-04 00:00:00 22.5 5 Nordeste 12 Sudeste 0 1013.1 -- 90